Time;durP1;ratioP1;P1;durP2;ratioP2;P2;SDS_P1;SDS_P2;PMS_P1;PMS_P2;Temp;Humidity;BMP_temperature;BMP_pressure;BME280_temperature;BME280_humidity;BME280_pressure;Samples;Min_cycle;Max_cycle;Signal;HPM_P1;HPM_P2
2023/12/19 00:01:24;;;;;;;53.58;25.10;;;8.20;99.90;;;;;;5057273;28;20045;-82
2023/12/19 00:03:50;;;;;;;52.90;25.88;;;8.20;99.90;;;;;;5059710;28;20037;-80
2023/12/19 00:06:16;;;;;;;51.42;24.40;;;8.20;99.90;;;;;;5067100;28;20457;-81
2023/12/19 00:08:41;;;;;;;49.85;26.23;;;8.10;99.90;;;;;;5061493;28;20079;-80
2023/12/19 00:11:07;;;;;;;47.67;24.65;;;8.20;99.90;;;;;;5068614;28;20045;-80
2023/12/19 00:13:33;;;;;;;52.78;25.50;;;8.20;99.90;;;;;;5070284;28;20509;-79
2023/12/19 00:15:59;;;;;;;45.55;23.88;;;8.20;99.90;;;;;;5059632;28;20085;-80
2023/12/19 00:18:26;;;;;;;47.30;22.83;;;8.20;99.90;;;;;;5065385;28;20131;-80
2023/12/19 00:20:54;;;;;;;44.75;23.02;;;8.30;99.90;;;;;;5056033;28;20452;-80
2023/12/19 00:23:20;;;;;;;45.30;22.98;;;8.10;99.90;;;;;;5065423;28;20102;-80
2023/12/19 00:25:45;;;;;;;44.72;21.42;;;8.10;99.90;;;;;;5044124;28;20754;-80
2023/12/19 00:28:11;;;;;;;42.45;22.48;;;8.20;99.90;;;;;;5052845;28;20041;-79
2023/12/19 00:30:37;;;;;;;45.78;21.83;;;8.20;99.90;;;;;;5067580;28;20037;-83
2023/12/19 00:33:03;;;;;;;48.28;22.63;;;8.20;99.90;;;;;;5061283;28;20123;-80
2023/12/19 00:35:29;;;;;;;43.30;22.67;;;8.20;99.90;;;;;;5064922;28;20495;-80
2023/12/19 00:37:54;;;;;;;39.08;20.17;;;8.40;99.90;;;;;;5061451;28;20049;-80
2023/12/19 00:40:20;;;;;;;41.88;22.30;;;8.20;99.90;;;;;;5066740;28;20427;-80
2023/12/19 00:42:46;;;;;;;48.97;21.70;;;8.20;99.90;;;;;;5055844;28;20128;-80
2023/12/19 00:45:12;;;;;;;42.55;20.77;;;8.20;99.90;;;;;;5051701;28;20210;-81
2023/12/19 00:47:39;;;;;;;39.38;20.65;;;8.20;99.90;;;;;;5052440;28;20882;-81
2023/12/19 00:50:07;;;;;;;40.58;20.52;;;8.20;99.90;;;;;;5059632;28;20080;-80
2023/12/19 00:52:33;;;;;;;40.60;20.52;;;8.20;99.90;;;;;;5064937;28;20084;-80
2023/12/19 00:54:59;;;;;;;40.65;19.17;;;8.30;99.90;;;;;;5056860;28;20120;-80
2023/12/19 00:57:25;;;;;;;37.70;20.98;;;8.20;99.90;;;;;;5055691;28;20048;-81
2023/12/19 00:59:51;;;;;;;38.72;18.90;;;8.50;99.90;;;;;;5061996;28;20048;-80
2023/12/19 01:02:16;;;;;;;32.28;15.95;;;8.20;99.90;;;;;;5057012;28;20468;-81
2023/12/19 01:04:42;;;;;;;34.63;18.48;;;8.20;99.90;;;;;;5071995;28;20488;-80
2023/12/19 01:07:07;;;;;;;37.25;19.90;;;8.20;99.90;;;;;;5070748;28;20140;-80
2023/12/19 01:09:33;;;;;;;35.72;18.13;;;8.20;99.90;;;;;;5071084;28;20059;-80
2023/12/19 01:11:59;;;;;;;32.13;17.98;;;8.20;99.90;;;;;;5058014;28;20041;-80
2023/12/19 01:14:24;;;;;;;36.55;18.15;;;8.20;99.90;;;;;;5066331;28;20045;-81
2023/12/19 01:16:50;;;;;;;35.90;18.33;;;8.30;99.90;;;;;;5069911;28;20076;-80
2023/12/19 01:19:16;;;;;;;33.60;18.20;;;8.20;99.90;;;;;;5064527;28;20048;-81
2023/12/19 01:21:41;;;;;;;33.13;18.60;;;8.20;99.90;;;;;;5063979;28;20482;-80
2023/12/19 01:24:07;;;;;;;36.42;18.42;;;8.40;99.90;;;;;;5065777;28;20128;-80
2023/12/19 01:26:32;;;;;;;33.85;18.73;;;8.20;99.90;;;;;;5060629;28;20041;-80
2023/12/19 01:28:58;;;;;;;32.08;17.83;;;8.20;99.90;;;;;;5059766;28;20049;-80
2023/12/19 01:31:24;;;;;;;39.05;19.13;;;8.20;99.90;;;;;;5056127;28;20492;-80
2023/12/19 01:33:51;;;;;;;30.20;17.13;;;8.20;99.90;;;;;;5064754;28;20048;-80
2023/12/19 01:36:16;;;;;;;34.13;18.02;;;8.20;99.90;;;;;;5072037;28;20513;-81
2023/12/19 01:38:42;;;;;;;31.67;18.23;;;8.20;99.90;;;;;;5054324;28;20049;-80
2023/12/19 01:41:07;;;;;;;29.83;16.40;;;8.10;99.90;;;;;;5058147;28;20099;-81
2023/12/19 01:43:33;;;;;;;31.05;18.13;;;8.20;99.90;;;;;;5054165;28;20087;-80
2023/12/19 01:45:59;;;;;;;33.53;18.23;;;8.10;99.90;;;;;;5055852;28;20045;-81
2023/12/19 01:48:26;;;;;;;32.05;18.00;;;8.20;99.90;;;;;;5065232;28;20041;-80
2023/12/19 01:50:51;;;;;;;34.83;19.33;;;8.20;99.90;;;;;;5054856;28;20056;-81
2023/12/19 01:53:19;;;;;;;31.88;17.33;;;8.20;99.90;;;;;;5064998;28;20044;-80
2023/12/19 01:55:48;;;;;;;31.15;17.48;;;8.20;99.90;;;;;;5068607;28;20053;-80
2023/12/19 01:58:14;;;;;;;34.55;17.75;;;8.10;99.90;;;;;;5053494;28;20417;-80
2023/12/19 02:00:40;;;;;;;30.98;16.92;;;8.20;99.90;;;;;;5062967;28;20041;-80
2023/12/19 02:03:06;;;;;;;30.17;16.25;;;8.20;99.90;;;;;;5053858;28;20525;-81
2023/12/19 02:05:36;;;;;;;30.02;16.45;;;8.20;99.90;;;;;;5045705;28;20063;-81
2023/12/19 02:08:01;;;;;;;29.27;15.88;;;8.20;99.90;;;;;;5053714;28;20053;-80
2023/12/19 02:10:27;;;;;;;29.98;16.95;;;8.20;99.90;;;;;;5070499;28;20077;-80
2023/12/19 02:12:53;;;;;;;27.65;15.73;;;8.30;99.90;;;;;;5075973;28;20485;-80
2023/12/19 02:15:18;;;;;;;27.10;14.13;;;8.30;99.90;;;;;;5073806;28;20040;-81
2023/12/19 02:17:44;;;;;;;26.80;15.07;;;8.20;99.90;;;;;;5068240;28;21201;-80
2023/12/19 02:20:10;;;;;;;26.50;14.48;;;8.20;99.90;;;;;;5060980;28;20056;-80
2023/12/19 02:22:35;;;;;;;23.98;14.57;;;8.20;99.90;;;;;;5073288;28;20115;-80
2023/12/19 02:25:01;;;;;;;26.08;14.23;;;8.20;99.90;;;;;;5059836;28;20395;-81
2023/12/19 02:27:27;;;;;;;25.20;13.57;;;8.20;99.90;;;;;;5059045;28;20064;-80
2023/12/19 02:29:53;;;;;;;26.42;14.35;;;8.20;99.90;;;;;;5060588;28;20048;-80
2023/12/19 02:32:18;;;;;;;24.08;13.88;;;8.20;99.90;;;;;;5063595;28;20055;-80
2023/12/19 02:34:45;;;;;;;26.25;15.40;;;8.20;99.90;;;;;;5053184;28;20043;-80
2023/12/19 02:37:11;;;;;;;24.88;14.32;;;8.20;99.90;;;;;;5067431;28;20045;-80
2023/12/19 02:39:37;;;;;;;28.10;15.40;;;8.20;99.90;;;;;;5056827;28;20107;-80
2023/12/19 02:42:02;;;;;;;25.08;14.93;;;8.20;99.90;;;;;;5071614;28;20040;-80
2023/12/19 02:44:28;;;;;;;24.60;15.00;;;8.20;99.90;;;;;;5074113;28;20063;-80
2023/12/19 02:46:54;;;;;;;26.77;15.20;;;8.20;99.90;;;;;;5060197;28;20135;-80
2023/12/19 02:49:20;;;;;;;27.05;16.00;;;8.20;99.90;;;;;;5052877;28;20052;-80
2023/12/19 02:51:46;;;;;;;26.15;15.20;;;8.20;99.90;;;;;;5070526;28;20119;-81
2023/12/19 02:54:11;;;;;;;29.73;15.65;;;8.20;99.90;;;;;;5069800;28;20123;-80
2023/12/19 02:56:37;;;;;;;24.95;14.32;;;8.20;99.90;;;;;;5052929;28;20045;-81
2023/12/19 02:59:03;;;;;;;22.35;13.43;;;8.20;99.90;;;;;;5061653;28;20443;-80
2023/12/19 03:01:28;;;;;;;26.20;15.65;;;8.20;99.90;;;;;;5062177;28;20456;-80
2023/12/19 03:03:54;;;;;;;25.88;15.07;;;8.50;99.90;;;;;;5052556;28;20099;-80
2023/12/19 03:06:19;;;;;;;21.48;13.57;;;8.20;99.90;;;;;;5064434;28;20044;-80
2023/12/19 03:08:46;;;;;;;23.75;13.52;;;8.10;99.90;;;;;;5072940;28;20123;-81
2023/12/19 03:11:13;;;;;;;21.70;12.85;;;8.20;99.90;;;;;;5066019;28;20045;-80
2023/12/19 03:13:38;;;;;;;24.25;12.90;;;8.10;99.90;;;;;;5063300;28;20174;-81
2023/12/19 03:16:05;;;;;;;23.33;11.73;;;8.10;99.90;;;;;;5060565;28;20127;-81
2023/12/19 03:18:31;;;;;;;22.65;12.68;;;8.10;99.90;;;;;;5051680;28;20056;-81
2023/12/19 03:20:57;;;;;;;18.67;11.27;;;8.10;99.90;;;;;;5052728;28;20091;-81
2023/12/19 03:23:23;;;;;;;21.67;11.35;;;8.10;99.90;;;;;;5052296;28;20519;-80
2023/12/19 03:25:49;;;;;;;17.77;10.95;;;8.10;99.90;;;;;;5052736;28;20132;-81
2023/12/19 03:28:15;;;;;;;15.88;10.27;;;8.10;99.90;;;;;;5052691;28;20544;-80
2023/12/19 03:30:41;;;;;;;17.58;10.77;;;8.10;99.90;;;;;;5052587;28;20421;-80
2023/12/19 03:33:06;;;;;;;16.65;10.48;;;8.10;99.90;;;;;;5052812;28;20044;-81
2023/12/19 03:35:32;;;;;;;17.00;10.23;;;8.10;99.90;;;;;;5052232;28;20048;-80
2023/12/19 03:37:58;;;;;;;15.90;9.55;;;8.00;99.90;;;;;;5064753;28;20541;-80
2023/12/19 03:40:23;;;;;;;16.40;10.23;;;8.00;99.90;;;;;;5054570;28;20115;-81
2023/12/19 03:42:49;;;;;;;16.27;10.30;;;8.00;99.90;;;;;;5043956;28;20070;-81
2023/12/19 03:45:15;;;;;;;16.65;10.68;;;8.00;99.90;;;;;;5064213;28;20044;-81
2023/12/19 03:47:41;;;;;;;19.70;10.88;;;8.00;99.90;;;;;;5056852;28;20408;-80
2023/12/19 03:50:08;;;;;;;18.85;11.10;;;8.00;99.90;;;;;;5051987;28;20124;-80
2023/12/19 03:52:35;;;;;;;18.65;10.73;;;8.00;99.90;;;;;;5052926;28;20056;-81
2023/12/19 03:55:01;;;;;;;18.08;10.50;;;8.10;99.90;;;;;;5071707;28;20040;-81
2023/12/19 03:57:27;;;;;;;19.30;9.95;;;8.00;99.90;;;;;;5071794;28;20488;-80
2023/12/19 03:59:53;;;;;;;15.98;10.07;;;8.00;99.90;;;;;;5072055;28;20044;-81
2023/12/19 04:02:19;;;;;;;21.70;11.45;;;7.90;99.90;;;;;;5070566;28;20098;-81
2023/12/19 04:04:44;;;;;;;18.08;10.18;;;8.00;99.90;;;;;;5051911;28;20057;-80
2023/12/19 04:07:10;;;;;;;14.57;9.38;;;8.00;99.90;;;;;;5066803;28;20040;-80
2023/12/19 04:09:36;;;;;;;15.40;9.18;;;8.00;99.90;;;;;;5054623;28;20427;-81
2023/12/19 04:12:02;;;;;;;14.30;8.50;;;7.90;99.90;;;;;;5061738;28;20072;-81
2023/12/19 04:14:29;;;;;;;16.30;8.63;;;7.90;99.90;;;;;;5071481;28;20511;-81
2023/12/19 04:16:55;;;;;;;15.43;9.23;;;7.90;99.90;;;;;;5071655;28;20040;-81
2023/12/19 04:19:21;;;;;;;16.00;9.23;;;7.90;99.90;;;;;;5054270;28;20057;-81
2023/12/19 04:21:48;;;;;;;15.00;8.93;;;7.90;99.90;;;;;;5038046;28;20044;-81
2023/12/19 04:24:14;;;;;;;15.77;8.50;;;7.90;99.90;;;;;;5051195;28;20052;-81
2023/12/19 04:26:42;;;;;;;14.02;9.15;;;7.90;99.90;;;;;;5051423;28;20132;-80
2023/12/19 04:29:08;;;;;;;16.63;9.05;;;7.90;99.90;;;;;;5054328;28;20048;-82
2023/12/19 04:31:33;;;;;;;14.93;9.30;;;7.90;99.90;;;;;;5055951;28;20052;-81
2023/12/19 04:33:59;;;;;;;15.68;8.98;;;7.90;99.90;;;;;;5055262;28;20122;-80
2023/12/19 04:36:25;;;;;;;16.45;9.55;;;7.90;99.90;;;;;;5055522;28;20432;-81
2023/12/19 04:38:51;;;;;;;15.05;8.80;;;8.10;99.90;;;;;;5072531;28;20044;-81
2023/12/19 04:41:17;;;;;;;17.80;10.02;;;7.80;99.90;;;;;;5072662;28;20067;-83
2023/12/19 04:43:42;;;;;;;15.63;9.52;;;7.90;99.90;;;;;;5059007;28;20044;-82
2023/12/19 04:46:08;;;;;;;14.77;8.50;;;7.90;99.90;;;;;;5058900;28;20036;-81
2023/12/19 04:48:34;;;;;;;15.32;8.40;;;7.90;99.90;;;;;;5074826;28;20048;-81
2023/12/19 04:51:00;;;;;;;14.52;8.48;;;7.90;99.90;;;;;;5065409;28;20757;-81
2023/12/19 04:53:26;;;;;;;13.27;6.97;;;7.90;99.90;;;;;;5054993;28;20053;-82
2023/12/19 04:55:52;;;;;;;12.50;7.20;;;7.80;99.90;;;;;;5068847;28;20044;-82
2023/12/19 04:58:18;;;;;;;11.43;6.80;;;8.10;99.90;;;;;;5058770;28;20056;-82
2023/12/19 05:00:43;;;;;;;13.52;7.38;;;7.80;99.90;;;;;;5055274;28;20439;-81
2023/12/19 05:03:09;;;;;;;11.05;6.60;;;7.80;99.90;;;;;;5057627;28;20135;-81
2023/12/19 05:05:35;;;;;;;11.18;6.40;;;8.00;99.90;;;;;;5058791;28;20083;-81
2023/12/19 05:08:01;;;;;;;15.48;5.78;;;7.80;99.90;;;;;;5075110;28;20056;-83
2023/12/19 05:10:26;;;;;;;10.77;6.38;;;7.80;99.90;;;;;;5074517;28;20052;-81
2023/12/19 05:12:52;;;;;;;12.00;6.10;;;7.90;99.90;;;;;;5072380;28;20044;-81
2023/12/19 05:15:17;;;;;;;12.20;6.38;;;8.00;99.90;;;;;;5059278;28;20058;-81
2023/12/19 05:17:43;;;;;;;10.80;6.22;;;7.80;99.90;;;;;;5057309;28;20088;-82
2023/12/19 05:20:09;;;;;;;9.70;5.68;;;7.80;99.90;;;;;;5054514;28;20087;-81
2023/12/19 05:22:35;;;;;;;9.88;5.45;;;7.80;99.90;;;;;;5062182;28;20376;-81
2023/12/19 05:25:00;;;;;;;12.13;5.20;;;7.80;99.90;;;;;;5054669;28;20128;-81
2023/12/19 05:27:26;;;;;;;10.80;5.93;;;7.80;99.90;;;;;;5063392;28;20592;-81
2023/12/19 05:29:52;;;;;;;12.43;7.00;;;8.20;99.90;;;;;;5062396;28;20492;-81
2023/12/19 05:32:17;;;;;;;12.98;6.50;;;7.80;99.90;;;;;;5060793;28;20055;-81
2023/12/19 05:34:43;;;;;;;11.00;6.25;;;7.80;99.90;;;;;;5071386;28;20044;-81
2023/12/19 05:37:08;;;;;;;12.25;6.70;;;7.80;99.90;;;;;;5071858;28;20106;-81
2023/12/19 05:39:34;;;;;;;11.82;6.60;;;7.80;99.90;;;;;;5054967;28;20137;-81
2023/12/19 05:42:00;;;;;;;11.02;6.25;;;8.00;99.90;;;;;;5063164;28;20056;-81
2023/12/19 05:44:25;;;;;;;12.32;6.65;;;7.80;99.90;;;;;;5053868;28;20081;-80
2023/12/19 05:46:52;;;;;;;11.70;6.75;;;7.80;99.90;;;;;;5042245;28;20076;-81
2023/12/19 05:49:18;;;;;;;11.07;6.15;;;7.90;99.90;;;;;;5073828;28;20539;-81
2023/12/19 05:51:44;;;;;;;13.05;6.20;;;7.80;99.90;;;;;;5073716;28;20132;-82
2023/12/19 05:54:10;;;;;;;12.40;6.72;;;7.80;99.90;;;;;;5065519;28;20135;-81
2023/12/19 05:56:36;;;;;;;10.10;5.85;;;7.80;99.90;;;;;;5070572;28;20094;-81
2023/12/19 05:59:01;;;;;;;10.02;5.75;;;7.80;99.90;;;;;;5066030;28;20131;-83
2023/12/19 06:01:27;;;;;;;12.70;6.78;;;7.80;99.90;;;;;;5074284;28;20055;-82
2023/12/19 06:03:54;;;;;;;9.77;5.80;;;8.00;99.90;;;;;;5058990;28;20691;-83
2023/12/19 06:06:20;;;;;;;10.38;5.57;;;7.80;99.90;;;;;;5064990;28;20048;-81
2023/12/19 06:08:46;;;;;;;10.80;6.10;;;7.80;99.90;;;;;;5058086;28;20073;-81
2023/12/19 06:11:12;;;;;;;11.77;5.82;;;7.90;99.90;;;;;;5056075;28;20091;-82
2023/12/19 06:13:38;;;;;;;12.68;6.50;;;7.80;99.90;;;;;;5068740;28;20443;-81
2023/12/19 06:16:06;;;;;;;11.10;5.82;;;7.90;99.90;;;;;;5062819;28;20101;-83
2023/12/19 06:18:32;;;;;;;9.13;5.45;;;7.80;99.90;;;;;;5057786;28;20119;-82
2023/12/19 06:21:01;;;;;;;10.70;5.82;;;7.90;99.90;;;;;;5063900;28;20048;-81
2023/12/19 06:23:27;;;;;;;10.32;5.45;;;8.10;99.90;;;;;;5054955;28;20171;-81
2023/12/19 06:25:54;;;;;;;10.77;5.82;;;7.90;99.90;;;;;;5061985;28;20083;-82
2023/12/19 06:28:20;;;;;;;11.02;6.10;;;8.10;99.90;;;;;;5071836;28;20052;-81
2023/12/19 06:30:45;;;;;;;10.18;5.88;;;7.90;99.90;;;;;;5055734;28;20047;-84
2023/12/19 06:33:11;;;;;;;9.88;5.70;;;7.90;99.90;;;;;;5059812;28;20036;-81
2023/12/19 06:35:43;;;;;;;10.52;5.60;;;7.90;99.90;;;;;;5061720;28;20044;-82
2023/12/19 06:38:08;;;;;;;9.85;5.68;;;7.90;99.90;;;;;;5070724;28;20515;-83
2023/12/19 06:40:36;;;;;;;10.18;5.28;;;8.00;99.90;;;;;;5070780;28;20072;-83
2023/12/19 06:43:05;;;;;;;10.23;5.47;;;7.90;99.90;;;;;;5064566;28;20071;-81
2023/12/19 06:45:33;;;;;;;9.90;5.72;;;8.00;99.90;;;;;;5061115;28;20045;-81
2023/12/19 06:48:01;;;;;;;9.32;5.15;;;8.00;99.90;;;;;;5059016;28;20041;-81
2023/12/19 06:50:26;;;;;;;9.15;5.20;;;8.00;99.90;;;;;;5056988;28;20128;-81
2023/12/19 06:52:53;;;;;;;10.63;6.07;;;8.00;99.90;;;;;;5058180;28;20131;-81
2023/12/19 06:55:19;;;;;;;11.63;5.78;;;8.00;99.90;;;;;;5062610;28;20049;-81
2023/12/19 06:57:45;;;;;;;9.73;5.45;;;7.90;99.90;;;;;;5055922;28;22219;-82
2023/12/19 07:00:11;;;;;;;9.90;5.38;;;8.00;99.90;;;;;;5054744;28;20427;-82
2023/12/19 07:02:37;;;;;;;11.15;5.22;;;8.00;99.90;;;;;;5055087;28;20052;-81
2023/12/19 07:05:03;;;;;;;8.40;4.97;;;7.90;99.90;;;;;;5069123;28;20098;-80
2023/12/19 07:07:29;;;;;;;10.13;5.82;;;8.00;99.90;;;;;;5065214;28;20050;-81
2023/12/19 07:09:54;;;;;;;10.35;5.43;;;8.00;99.90;;;;;;5060963;28;20159;-82
2023/12/19 07:12:20;;;;;;;9.13;4.78;;;8.30;99.90;;;;;;5066367;28;20044;-81
2023/12/19 07:14:46;;;;;;;12.27;5.07;;;8.00;99.90;;;;;;5059615;28;20044;-83
2023/12/19 07:17:12;;;;;;;8.77;5.18;;;8.00;99.90;;;;;;5059776;28;20484;-82
2023/12/19 07:19:40;;;;;;;9.50;5.45;;;8.00;99.90;;;;;;5064612;28;20062;-82
2023/12/19 07:22:06;;;;;;;9.65;5.13;;;8.10;99.90;;;;;;5052663;28;20052;-83
2023/12/19 07:24:32;;;;;;;8.88;4.90;;;8.00;99.90;;;;;;5065129;28;20040;-85
2023/12/19 07:26:59;;;;;;;11.48;5.20;;;8.00;99.90;;;;;;5052841;28;20473;-84
2023/12/19 07:29:25;;;;;;;9.05;4.40;;;8.00;99.90;;;;;;5052419;28;20052;-83
2023/12/19 07:31:51;;;;;;;8.95;5.10;;;8.10;99.90;;;;;;5052798;28;20140;-83
2023/12/19 07:34:17;;;;;;;8.85;4.57;;;8.00;99.90;;;;;;5054901;28;20514;-83
2023/12/19 07:36:43;;;;;;;8.13;4.72;;;8.00;99.90;;;;;;5052439;28;20036;-82
2023/12/19 07:39:10;;;;;;;9.68;4.40;;;8.10;99.90;;;;;;5068706;28;20040;-80
2023/12/19 07:41:35;;;;;;;7.97;4.65;;;8.00;99.90;;;;;;5053908;28;20052;-81
2023/12/19 07:44:16;;;;;;;8.27;4.40;;;8.10;99.90;;;;;;5066449;28;20068;-80
2023/12/19 07:46:42;;;;;;;10.40;4.47;;;8.10;99.90;;;;;;5065183;28;20097;-80
2023/12/19 07:49:11;;;;;;;8.32;4.68;;;8.10;99.90;;;;;;5060517;28;20141;-79
2023/12/19 07:51:37;;;;;;;10.88;4.72;;;8.30;99.90;;;;;;5034004;28;20052;-81
2023/12/19 07:54:02;;;;;;;10.60;4.53;;;8.10;99.90;;;;;;5043929;28;20054;-82
2023/12/19 07:56:28;;;;;;;9.38;5.20;;;8.10;99.90;;;;;;5061243;28;20044;-80
2023/12/19 07:58:54;;;;;;;9.05;4.43;;;8.10;99.90;;;;;;5057668;28;20053;-79
2023/12/19 08:01:20;;;;;;;9.18;4.78;;;8.10;99.90;;;;;;5050493;28;20052;-80
2023/12/19 08:03:47;;;;;;;8.77;5.03;;;8.10;99.90;;;;;;5054649;28;20109;-83
2023/12/19 08:06:13;;;;;;;8.60;5.43;;;8.10;99.90;;;;;;5062104;28;20053;-84
2023/12/19 08:08:40;;;;;;;10.82;5.65;;;8.10;99.90;;;;;;5054843;28;20040;-84
2023/12/19 08:11:07;;;;;;;9.18;5.25;;;8.10;99.90;;;;;;5063423;28;20127;-80
2023/12/19 08:13:34;;;;;;;10.77;5.68;;;8.20;99.90;;;;;;5062414;28;20053;-80
2023/12/19 08:16:00;;;;;;;8.15;4.50;;;8.10;99.90;;;;;;5055091;28;20430;-80
2023/12/19 08:18:26;;;;;;;9.38;5.00;;;8.20;99.90;;;;;;5062032;28;20481;-80
2023/12/19 08:20:51;;;;;;;9.15;4.93;;;8.10;99.90;;;;;;5053109;28;20178;-80
2023/12/19 08:23:17;;;;;;;8.60;4.60;;;8.10;99.90;;;;;;5055002;28;20127;-80
2023/12/19 08:25:43;;;;;;;7.90;4.65;;;8.30;99.90;;;;;;5062822;28;20055;-80
2023/12/19 08:28:09;;;;;;;11.70;4.95;;;8.20;99.90;;;;;;5053148;28;20052;-80
2023/12/19 08:30:35;;;;;;;9.23;4.97;;;8.20;99.90;;;;;;5061738;28;20036;-80
2023/12/19 08:33:02;;;;;;;10.02;4.90;;;8.20;99.90;;;;;;5062972;28;20045;-80
2023/12/19 08:35:29;;;;;;;7.78;3.90;;;8.20;99.90;;;;;;5051646;28;20049;-80
2023/12/19 08:37:55;;;;;;;8.52;4.60;;;8.20;99.90;;;;;;5052230;28;20075;-81
2023/12/19 08:40:21;;;;;;;7.55;3.85;;;8.20;99.90;;;;;;5061100;28;20123;-82
2023/12/19 08:42:48;;;;;;;8.88;4.85;;;8.20;99.90;;;;;;5084801;28;20045;-80
2023/12/19 08:45:23;;;;;;;9.77;4.75;;;8.40;99.90;;;;;;5052158;28;20045;-78
2023/12/19 08:47:50;;;;;;;7.88;4.55;;;8.20;99.90;;;;;;5052370;28;20128;-80
2023/12/19 08:50:17;;;;;;;8.45;4.78;;;8.20;99.90;;;;;;5070477;28;20143;-80
2023/12/19 08:52:43;;;;;;;9.52;5.03;;;8.20;99.90;;;;;;5051095;28;20051;-80
2023/12/19 08:55:10;;;;;;;8.57;4.90;;;8.30;99.90;;;;;;5058299;28;20564;-80
2023/12/19 08:57:42;;;;;;;9.85;5.45;;;8.20;99.90;;;;;;5051913;28;20052;-81
2023/12/19 09:00:18;;;;;;;9.07;5.20;;;8.30;99.90;;;;;;5051756;28;20052;-80
2023/12/19 09:02:44;;;;;;;11.73;5.45;;;8.30;99.90;;;;;;5053282;28;20049;-80
2023/12/19 09:05:21;;;;;;;10.50;6.13;;;8.40;99.90;;;;;;5055007;28;20041;-81
2023/12/19 09:07:47;;;;;;;10.50;6.10;;;8.30;99.90;;;;;;5067638;28;20052;-82
2023/12/19 09:10:14;;;;;;;9.80;5.55;;;8.30;99.90;;;;;;5071428;28;20049;-82
2023/12/19 09:12:40;;;;;;;10.77;6.40;;;8.40;99.90;;;;;;5071151;28;20379;-81
2023/12/19 09:15:07;;;;;;;11.45;6.43;;;8.30;99.90;;;;;;5071901;28;20036;-83
2023/12/19 09:17:33;;;;;;;11.70;6.50;;;8.40;99.90;;;;;;5073765;28;20415;-82
2023/12/19 09:19:59;;;;;;;10.57;6.22;;;8.40;99.90;;;;;;5074943;28;20083;-81
2023/12/19 09:22:25;;;;;;;10.38;6.40;;;8.40;99.90;;;;;;5075149;28;20127;-81
2023/12/19 09:24:52;;;;;;;11.00;6.68;;;8.40;99.90;;;;;;5074679;28;20166;-83
2023/12/19 09:27:17;;;;;;;12.52;7.50;;;8.40;99.90;;;;;;5057370;28;20052;-82
2023/12/19 09:29:43;;;;;;;10.23;6.00;;;8.60;99.90;;;;;;5075302;28;20094;-82
2023/12/19 09:32:09;;;;;;;10.90;6.50;;;8.50;99.90;;;;;;5074378;28;20395;-81
2023/12/19 09:34:38;;;;;;;13.13;6.65;;;8.40;99.90;;;;;;5054754;28;20485;-81
2023/12/19 09:37:05;;;;;;;12.00;6.47;;;8.50;99.90;;;;;;5055941;28;20059;-81
2023/12/19 09:39:31;;;;;;;13.50;6.43;;;8.50;99.90;;;;;;5060405;28;20470;-83
2023/12/19 09:41:58;;;;;;;11.90;6.65;;;8.50;99.90;;;;;;5056360;28;20136;-81
2023/12/19 09:44:25;;;;;;;10.93;6.15;;;8.50;99.90;;;;;;5055856;28;20064;-80
2023/12/19 09:46:52;;;;;;;10.68;6.90;;;8.50;99.90;;;;;;5054904;28;20098;-81
2023/12/19 09:49:22;;;;;;;10.98;6.18;;;8.60;99.90;;;;;;5054969;28;20057;-81
2023/12/19 09:51:54;;;;;;;10.23;5.97;;;8.50;99.90;;;;;;5055845;28;20045;-80
2023/12/19 09:54:21;;;;;;;10.18;5.60;;;8.60;99.90;;;;;;5054515;28;20381;-80
2023/12/19 09:56:47;;;;;;;10.52;6.00;;;8.60;99.90;;;;;;5068562;28;20508;-81
2023/12/19 09:59:16;;;;;;;11.45;5.78;;;8.70;99.90;;;;;;5074279;28;20098;-82
2023/12/19 10:01:42;;;;;;;10.82;6.47;;;8.60;99.90;;;;;;5075530;28;20037;-81
2023/12/19 10:04:13;;;;;;;11.10;6.15;;;8.60;99.90;;;;;;5060766;28;20052;-81
2023/12/19 10:07:01;;;;;;;9.10;5.47;;;8.60;99.90;;;;;;5055702;28;20071;-81
2023/12/19 10:09:27;;;;;;;10.95;6.57;;;8.70;99.90;;;;;;5064424;28;20477;-81
2023/12/19 10:12:09;;;;;;;10.30;5.40;;;8.70;99.90;;;;;;5075498;28;20045;-82
2023/12/19 10:14:36;;;;;;;9.80;5.50;;;8.70;99.90;;;;;;5075298;28;20131;-81
2023/12/19 10:17:04;;;;;;;10.13;5.72;;;8.70;99.90;;;;;;5074709;28;20044;-81
2023/12/19 10:19:30;;;;;;;9.82;5.80;;;8.60;99.90;;;;;;5074113;28;20096;-82
2023/12/19 10:22:13;;;;;;;10.10;5.78;;;8.80;99.90;;;;;;5073490;28;20040;-82
2023/12/19 10:24:39;;;;;;;10.52;5.88;;;8.70;99.90;;;;;;5073611;28;20032;-81
2023/12/19 10:27:06;;;;;;;10.70;6.10;;;8.70;99.90;;;;;;5073793;28;20044;-81
2023/12/19 10:29:38;;;;;;;10.23;5.70;;;8.70;99.90;;;;;;5075116;28;20055;-81
2023/12/19 10:32:16;;;;;;;9.07;5.38;;;8.70;99.90;;;;;;5075011;28;20404;-81
2023/12/19 10:34:46;;;;;;;10.38;5.80;;;8.80;99.90;;;;;;5073404;28;20070;-82
2023/12/19 10:37:17;;;;;;;10.73;6.07;;;8.70;99.90;;;;;;5068544;28;20051;-81
2023/12/19 10:39:44;;;;;;;9.90;5.60;;;8.80;99.90;;;;;;5073483;28;20052;-81
2023/12/19 10:42:10;;;;;;;9.38;5.80;;;8.80;99.90;;;;;;5074251;28;20506;-81
2023/12/19 10:44:40;;;;;;;9.73;5.50;;;8.80;99.90;;;;;;5073827;28;20052;-81
2023/12/19 10:47:12;;;;;;;9.73;5.82;;;8.80;99.90;;;;;;5074842;28;20066;-81
2023/12/19 10:49:39;;;;;;;8.80;5.32;;;8.80;99.90;;;;;;5074277;28;20044;-81
2023/12/19 10:52:13;;;;;;;9.77;5.82;;;8.90;99.90;;;;;;5074294;28;20049;-81
2023/12/19 10:54:41;;;;;;;11.00;6.50;;;8.90;99.90;;;;;;5073389;28;20049;-80
2023/12/19 10:57:17;;;;;;;9.63;5.55;;;8.90;99.90;;;;;;5074683;28;20048;-81
2023/12/19 10:59:58;;;;;;;9.35;5.35;;;8.90;99.90;;;;;;5054689;28;20120;-81
2023/12/19 11:02:38;;;;;;;10.15;5.53;;;9.10;99.90;;;;;;5064490;28;20359;-81
2023/12/19 11:05:26;;;;;;;8.05;4.90;;;8.90;99.90;;;;;;5073902;28;20070;-82
2023/12/19 11:07:55;;;;;;;10.70;5.72;;;8.90;99.90;;;;;;5072780;28;20048;-82
2023/12/19 11:10:22;;;;;;;11.43;5.47;;;8.90;99.90;;;;;;5073993;28;20051;-80
2023/12/19 11:12:49;;;;;;;11.00;4.57;;;8.90;99.90;;;;;;5072506;28;20399;-81
2023/12/19 11:15:16;;;;;;;8.98;5.15;;;8.90;99.90;;;;;;5073629;28;20123;-80
2023/12/19 11:18:14;;;;;;;8.45;4.90;;;8.90;99.90;;;;;;5070036;28;20041;-80
2023/12/19 11:20:45;;;;;;;9.98;5.03;;;9.00;99.90;;;;;;5052388;28;20139;-81
2023/12/19 11:23:42;;;;;;;9.35;5.20;;;9.00;99.90;;;;;;5052749;28;20080;-81
2023/12/19 11:26:32;;;;;;;8.23;4.80;;;9.00;99.90;;;;;;5052751;28;20041;-81
2023/12/19 11:28:58;;;;;;;10.20;5.20;;;9.00;99.90;;;;;;5053101;28;20048;-81
2023/12/19 11:31:36;;;;;;;8.38;5.10;;;9.30;99.90;;;;;;5053012;28;20106;-81
2023/12/19 11:34:24;;;;;;;8.27;4.53;;;9.00;99.90;;;;;;5052439;28;20547;-81
2023/12/19 11:37:03;;;;;;;10.68;5.82;;;9.10;99.90;;;;;;5052924;28;20045;-81
2023/12/19 11:39:31;;;;;;;7.88;4.80;;;9.00;99.90;;;;;;5053672;28;20045;-81
2023/12/19 11:41:57;;;;;;;8.70;4.90;;;9.10;99.90;;;;;;5052303;28;20088;-81
2023/12/19 11:44:49;;;;;;;8.90;5.30;;;9.10;99.90;;;;;;5053880;28;20052;-81
2023/12/19 11:47:21;;;;;;;9.63;5.38;;;9.00;99.90;;;;;;5054192;28;20061;-81
2023/12/19 11:49:47;;;;;;;9.02;5.20;;;9.20;99.90;;;;;;5053552;28;20049;-80
2023/12/19 11:52:32;;;;;;;8.48;4.82;;;9.10;99.90;;;;;;5052073;28;20075;-81
2023/12/19 11:55:02;;;;;;;10.65;6.35;;;9.00;99.90;;;;;;5056454;28;20036;-80
2023/12/19 11:57:28;;;;;;;9.40;6.03;;;9.00;99.90;;;;;;5073254;28;20391;-81
2023/12/19 11:59:54;;;;;;;11.00;5.78;;;9.00;99.90;;;;;;5073204;28;20051;-81
2023/12/19 12:02:46;;;;;;;9.82;5.80;;;9.10;99.90;;;;;;5065476;28;20051;-84
2023/12/19 12:05:13;;;;;;;13.68;7.80;;;9.00;99.90;;;;;;5068273;28;20546;-81
2023/12/19 12:07:47;;;;;;;10.50;6.40;;;9.00;99.90;;;;;;5059982;28;20049;-80
2023/12/19 12:10:24;;;;;;;11.77;6.70;;;9.10;99.90;;;;;;5060526;28;20116;-80
2023/12/19 12:12:51;;;;;;;9.70;6.03;;;9.00;99.90;;;;;;5065243;28;20049;-80
2023/12/19 12:15:23;;;;;;;9.50;5.53;;;9.00;99.90;;;;;;5064807;28;20123;-81
2023/12/19 12:17:50;;;;;;;10.52;6.32;;;9.10;99.90;;;;;;5063551;28;20049;-81
2023/12/19 12:20:24;;;;;;;10.52;6.13;;;9.00;99.90;;;;;;5053352;28;20118;-81
2023/12/19 12:22:51;;;;;;;9.80;6.17;;;9.10;99.90;;;;;;5053817;28;20088;-82
2023/12/19 12:25:19;;;;;;;9.45;5.78;;;9.00;99.90;;;;;;5060101;28;20049;-81
2023/12/19 12:27:45;;;;;;;8.52;5.28;;;9.10;99.90;;;;;;5066029;28;20472;-81
2023/12/19 12:30:11;;;;;;;9.00;5.80;;;9.00;99.90;;;;;;5035369;28;20076;-81
2023/12/19 12:32:39;;;;;;;9.40;6.03;;;9.00;99.90;;;;;;5072227;28;20313;-82
2023/12/19 12:35:26;;;;;;;8.80;5.47;;;9.00;99.90;;;;;;5069758;28;20041;-81
2023/12/19 12:38:00;;;;;;;10.13;5.60;;;9.00;99.90;;;;;;5057653;28;20106;-80
2023/12/19 12:40:26;;;;;;;10.93;6.15;;;9.10;99.90;;;;;;5052515;28;20084;-81
2023/12/19 12:42:53;;;;;;;9.57;5.63;;;9.20;99.90;;;;;;5071670;28;20044;-80
2023/12/19 12:45:19;;;;;;;10.02;6.05;;;9.00;99.90;;;;;;5079343;28;20086;-81
2023/12/19 12:47:45;;;;;;;10.13;6.13;;;9.00;99.90;;;;;;5068805;28;20037;-81